sensor_id;sensor_type;location;lat;lon;timestamp;P1;durP1;ratioP1;P2;durP2;ratioP2
30010;SDS011;16851;53.564;8.112;2023-01-23T00:00:06;13.97;;;4.87;;
30010;SDS011;16851;53.564;8.112;2023-01-23T00:05:12;9.43;;;3.17;;
30010;SDS011;16851;53.564;8.112;2023-01-23T00:10:16;8.70;;;3.40;;
30010;SDS011;16851;53.564;8.112;2023-01-23T00:15:21;13.47;;;4.10;;
30010;SDS011;16851;53.564;8.112;2023-01-23T00:20:27;7.60;;;3.03;;
30010;SDS011;16851;53.564;8.112;2023-01-23T00:25:31;12.23;;;3.73;;
30010;SDS011;16851;53.564;8.112;2023-01-23T00:30:35;10.97;;;3.00;;
30010;SDS011;16851;53.564;8.112;2023-01-23T00:35:45;8.93;;;3.97;;
30010;SDS011;16851;53.564;8.112;2023-01-23T00:40:51;7.83;;;3.50;;
30010;SDS011;16851;53.564;8.112;2023-01-23T00:45:54;12.40;;;3.77;;
30010;SDS011;16851;53.564;8.112;2023-01-23T00:51:02;12.93;;;3.77;;
30010;SDS011;16851;53.564;8.112;2023-01-23T00:56:06;11.50;;;4.53;;
30010;SDS011;16851;53.564;8.112;2023-01-23T01:01:09;8.90;;;3.60;;
30010;SDS011;16851;53.564;8.112;2023-01-23T01:06:14;9.73;;;3.63;;
30010;SDS011;16851;53.564;8.112;2023-01-23T01:11:18;9.20;;;3.60;;
30010;SDS011;16851;53.564;8.112;2023-01-23T01:16:22;9.80;;;4.33;;
30010;SDS011;16851;53.564;8.112;2023-01-23T01:21:32;10.30;;;4.27;;
30010;SDS011;16851;53.564;8.112;2023-01-23T01:26:37;10.20;;;5.10;;
30010;SDS011;16851;53.564;8.112;2023-01-23T01:31:44;10.70;;;4.50;;
30010;SDS011;16851;53.564;8.112;2023-01-23T01:36:48;11.40;;;4.70;;
30010;SDS011;16851;53.564;8.112;2023-01-23T01:41:54;10.00;;;4.33;;
30010;SDS011;16851;53.564;8.112;2023-01-23T01:46:56;12.33;;;4.90;;
30010;SDS011;16851;53.564;8.112;2023-01-23T01:52:04;12.33;;;4.70;;
30010;SDS011;16851;53.564;8.112;2023-01-23T02:02:33;15.03;;;4.53;;
30010;SDS011;16851;53.564;8.112;2023-01-23T02:13:19;8.50;;;4.23;;
30010;SDS011;16851;53.564;8.112;2023-01-23T02:18:29;9.67;;;4.10;;
30010;SDS011;16851;53.564;8.112;2023-01-23T02:29:15;10.30;;;4.53;;
30010;SDS011;16851;53.564;8.112;2023-01-23T02:34:25;6.90;;;4.10;;
30010;SDS011;16851;53.564;8.112;2023-01-23T02:39:32;11.27;;;4.90;;
30010;SDS011;16851;53.564;8.112;2023-01-23T02:44:37;9.20;;;4.50;;
30010;SDS011;16851;53.564;8.112;2023-01-23T02:49:42;8.87;;;4.70;;
30010;SDS011;16851;53.564;8.112;2023-01-23T02:54:45;8.67;;;4.53;;
30010;SDS011;16851;53.564;8.112;2023-01-23T02:59:53;10.53;;;4.97;;
30010;SDS011;16851;53.564;8.112;2023-01-23T03:05:14;11.07;;;5.80;;
30010;SDS011;16851;53.564;8.112;2023-01-23T03:10:21;10.40;;;5.33;;
30010;SDS011;16851;53.564;8.112;2023-01-23T03:15:25;14.53;;;6.80;;
30010;SDS011;16851;53.564;8.112;2023-01-23T03:20:28;9.03;;;6.33;;
30010;SDS011;16851;53.564;8.112;2023-01-23T03:25:33;13.27;;;7.13;;
30010;SDS011;16851;53.564;8.112;2023-01-23T03:30:37;17.33;;;8.13;;
30010;SDS011;16851;53.564;8.112;2023-01-23T03:35:44;12.63;;;8.10;;
30010;SDS011;16851;53.564;8.112;2023-01-23T03:40:49;15.93;;;8.60;;
30010;SDS011;16851;53.564;8.112;2023-01-23T03:46:12;12.87;;;7.73;;
30010;SDS011;16851;53.564;8.112;2023-01-23T03:51:15;21.00;;;10.33;;
30010;SDS011;16851;53.564;8.112;2023-01-23T03:56:19;26.23;;;12.10;;
30010;SDS011;16851;53.564;8.112;2023-01-23T04:01:21;32.60;;;12.00;;
30010;SDS011;16851;53.564;8.112;2023-01-23T04:06:25;23.50;;;11.30;;
30010;SDS011;16851;53.564;8.112;2023-01-23T04:11:27;19.73;;;10.40;;
30010;SDS011;16851;53.564;8.112;2023-01-23T04:16:33;17.27;;;7.60;;
30010;SDS011;16851;53.564;8.112;2023-01-23T04:21:40;13.53;;;8.60;;
30010;SDS011;16851;53.564;8.112;2023-01-23T04:26:42;14.33;;;8.77;;
30010;SDS011;16851;53.564;8.112;2023-01-23T04:31:45;17.43;;;9.50;;
30010;SDS011;16851;53.564;8.112;2023-01-23T04:36:50;19.10;;;11.10;;
30010;SDS011;16851;53.564;8.112;2023-01-23T04:41:52;17.80;;;10.80;;
30010;SDS011;16851;53.564;8.112;2023-01-23T04:47:19;25.00;;;12.77;;
30010;SDS011;16851;53.564;8.112;2023-01-23T04:52:23;21.87;;;10.83;;
30010;SDS011;16851;53.564;8.112;2023-01-23T04:57:30;30.20;;;15.17;;
30010;SDS011;16851;53.564;8.112;2023-01-23T05:02:46;28.63;;;14.33;;
30010;SDS011;16851;53.564;8.112;2023-01-23T05:07:53;26.97;;;13.87;;
30010;SDS011;16851;53.564;8.112;2023-01-23T05:13:03;33.37;;;15.87;;
30010;SDS011;16851;53.564;8.112;2023-01-23T05:18:08;34.40;;;15.00;;
30010;SDS011;16851;53.564;8.112;2023-01-23T05:23:13;34.73;;;17.17;;
30010;SDS011;16851;53.564;8.112;2023-01-23T05:28:24;25.73;;;13.80;;
30010;SDS011;16851;53.564;8.112;2023-01-23T05:33:29;22.17;;;13.07;;
30010;SDS011;16851;53.564;8.112;2023-01-23T05:38:36;19.20;;;11.17;;
30010;SDS011;16851;53.564;8.112;2023-01-23T05:43:38;20.30;;;11.50;;
30010;SDS011;16851;53.564;8.112;2023-01-23T05:49:00;21.10;;;11.80;;
30010;SDS011;16851;53.564;8.112;2023-01-23T05:54:10;23.40;;;12.30;;
30010;SDS011;16851;53.564;8.112;2023-01-23T05:59:16;20.13;;;11.97;;
30010;SDS011;16851;53.564;8.112;2023-01-23T06:04:31;21.20;;;12.50;;
30010;SDS011;16851;53.564;8.112;2023-01-23T06:09:57;22.70;;;11.90;;
30010;SDS011;16851;53.564;8.112;2023-01-23T06:15:05;23.73;;;12.93;;
30010;SDS011;16851;53.564;8.112;2023-01-23T06:20:08;18.27;;;11.30;;
30010;SDS011;16851;53.564;8.112;2023-01-23T06:25:15;24.80;;;12.67;;
30010;SDS011;16851;53.564;8.112;2023-01-23T06:30:19;25.73;;;13.03;;
30010;SDS011;16851;53.564;8.112;2023-01-23T06:35:27;20.57;;;12.67;;
30010;SDS011;16851;53.564;8.112;2023-01-23T06:40:34;24.00;;;12.77;;
30010;SDS011;16851;53.564;8.112;2023-01-23T06:45:51;20.13;;;12.20;;
30010;SDS011;16851;53.564;8.112;2023-01-23T06:50:58;21.77;;;13.07;;
30010;SDS011;16851;53.564;8.112;2023-01-23T06:56:04;22.87;;;12.10;;
30010;SDS011;16851;53.564;8.112;2023-01-23T07:01:13;21.20;;;11.73;;
30010;SDS011;16851;53.564;8.112;2023-01-23T07:06:48;18.53;;;12.77;;
30010;SDS011;16851;53.564;8.112;2023-01-23T07:11:52;24.10;;;13.60;;
30010;SDS011;16851;53.564;8.112;2023-01-23T07:16:56;23.77;;;14.13;;
30010;SDS011;16851;53.564;8.112;2023-01-23T07:21:59;36.73;;;18.37;;
30010;SDS011;16851;53.564;8.112;2023-01-23T07:27:07;22.23;;;14.47;;
30010;SDS011;16851;53.564;8.112;2023-01-23T07:32:13;23.30;;;13.07;;
30010;SDS011;16851;53.564;8.112;2023-01-23T07:37:17;23.43;;;12.23;;
30010;SDS011;16851;53.564;8.112;2023-01-23T07:42:22;25.10;;;12.93;;
30010;SDS011;16851;53.564;8.112;2023-01-23T07:47:26;22.33;;;13.37;;
30010;SDS011;16851;53.564;8.112;2023-01-23T07:52:28;23.80;;;15.45;;
30010;SDS011;16851;53.564;8.112;2023-01-23T07:57:32;21.70;;;15.60;;
30010;SDS011;16851;53.564;8.112;2023-01-23T08:02:37;22.98;;;16.05;;
30010;SDS011;16851;53.564;8.112;2023-01-23T08:07:41;24.23;;;15.30;;
30010;SDS011;16851;53.564;8.112;2023-01-23T08:12:45;22.13;;;14.60;;
30010;SDS011;16851;53.564;8.112;2023-01-23T08:17:54;20.23;;;13.63;;
30010;SDS011;16851;53.564;8.112;2023-01-23T08:22:56;25.13;;;14.23;;
30010;SDS011;16851;53.564;8.112;2023-01-23T08:28:06;40.13;;;16.70;;
30010;SDS011;16851;53.564;8.112;2023-01-23T08:33:08;27.17;;;14.80;;
30010;SDS011;16851;53.564;8.112;2023-01-23T08:38:12;21.47;;;14.53;;
30010;SDS011;16851;53.564;8.112;2023-01-23T08:43:16;22.63;;;13.90;;
30010;SDS011;16851;53.564;8.112;2023-01-23T08:48:20;28.47;;;14.63;;
30010;SDS011;16851;53.564;8.112;2023-01-23T08:53:25;22.10;;;13.47;;
30010;SDS011;16851;53.564;8.112;2023-01-23T08:58:29;19.37;;;12.53;;
30010;SDS011;16851;53.564;8.112;2023-01-23T09:03:32;22.73;;;14.43;;
30010;SDS011;16851;53.564;8.112;2023-01-23T09:08:34;21.63;;;12.90;;
30010;SDS011;16851;53.564;8.112;2023-01-23T09:13:38;21.30;;;12.20;;
30010;SDS011;16851;53.564;8.112;2023-01-23T09:18:43;20.23;;;13.73;;
30010;SDS011;16851;53.564;8.112;2023-01-23T09:23:47;20.73;;;13.33;;
30010;SDS011;16851;53.564;8.112;2023-01-23T09:28:51;18.93;;;13.50;;
30010;SDS011;16851;53.564;8.112;2023-01-23T09:33:53;22.47;;;14.17;;
30010;SDS011;16851;53.564;8.112;2023-01-23T09:38:55;20.93;;;14.37;;
30010;SDS011;16851;53.564;8.112;2023-01-23T09:44:17;19.30;;;13.57;;
30010;SDS011;16851;53.564;8.112;2023-01-23T10:00:32;19.77;;;13.10;;
30010;SDS011;16851;53.564;8.112;2023-01-23T10:05:42;20.37;;;12.77;;
30010;SDS011;16851;53.564;8.112;2023-01-23T10:11:03;18.27;;;11.87;;
30010;SDS011;16851;53.564;8.112;2023-01-23T10:16:43;17.30;;;11.90;;
30010;SDS011;16851;53.564;8.112;2023-01-23T10:27:25;13.03;;;10.03;;
30010;SDS011;16851;53.564;8.112;2023-01-23T10:32:40;15.87;;;10.60;;
30010;SDS011;16851;53.564;8.112;2023-01-23T10:43:48;18.40;;;11.80;;
30010;SDS011;16851;53.564;8.112;2023-01-23T10:48:51;15.70;;;11.10;;
30010;SDS011;16851;53.564;8.112;2023-01-23T11:04:54;16.47;;;11.03;;
30010;SDS011;16851;53.564;8.112;2023-01-23T11:30:52;19.03;;;11.90;;
30010;SDS011;16851;53.564;8.112;2023-01-23T11:41:20;17.70;;;11.20;;
30010;SDS011;16851;53.564;8.112;2023-01-23T12:08:34;17.77;;;11.40;;
30010;SDS011;16851;53.564;8.112;2023-01-23T12:25:33;15.17;;;11.30;;
30010;SDS011;16851;53.564;8.112;2023-01-23T12:41:37;12.50;;;9.67;;
30010;SDS011;16851;53.564;8.112;2023-01-23T12:46:50;16.47;;;11.47;;
30010;SDS011;16851;53.564;8.112;2023-01-23T12:52:03;14.50;;;10.17;;
30010;SDS011;16851;53.564;8.112;2023-01-23T12:57:09;15.97;;;10.60;;
30010;SDS011;16851;53.564;8.112;2023-01-23T13:12:52;15.83;;;10.23;;
30010;SDS011;16851;53.564;8.112;2023-01-23T13:18:00;17.50;;;10.63;;
30010;SDS011;16851;53.564;8.112;2023-01-23T13:23:20;13.40;;;9.80;;
30010;SDS011;16851;53.564;8.112;2023-01-23T13:49:33;17.63;;;11.23;;
30010;SDS011;16851;53.564;8.112;2023-01-23T13:55:17;13.03;;;8.80;;
30010;SDS011;16851;53.564;8.112;2023-01-23T14:06:44;16.97;;;11.30;;
30010;SDS011;16851;53.564;8.112;2023-01-23T14:12:03;11.90;;;9.27;;
30010;SDS011;16851;53.564;8.112;2023-01-23T14:17:23;13.43;;;8.50;;
30010;SDS011;16851;53.564;8.112;2023-01-23T14:22:42;17.90;;;9.60;;
30010;SDS011;16851;53.564;8.112;2023-01-23T14:27:45;11.80;;;7.93;;
30010;SDS011;16851;53.564;8.112;2023-01-23T14:32:55;10.07;;;6.67;;
30010;SDS011;16851;53.564;8.112;2023-01-23T14:38:01;9.40;;;6.33;;
30010;SDS011;16851;53.564;8.112;2023-01-23T14:43:08;10.93;;;6.97;;
30010;SDS011;16851;53.564;8.112;2023-01-23T14:48:20;8.50;;;6.67;;
30010;SDS011;16851;53.564;8.112;2023-01-23T14:53:27;8.80;;;6.93;;
30010;SDS011;16851;53.564;8.112;2023-01-23T14:58:28;10.47;;;7.90;;
30010;SDS011;16851;53.564;8.112;2023-01-23T15:03:43;10.70;;;8.17;;
30010;SDS011;16851;53.564;8.112;2023-01-23T15:09:07;11.20;;;7.37;;
30010;SDS011;16851;53.564;8.112;2023-01-23T15:19:26;9.60;;;6.87;;
30010;SDS011;16851;53.564;8.112;2023-01-23T15:24:27;12.30;;;7.17;;
30010;SDS011;16851;53.564;8.112;2023-01-23T15:29:34;9.60;;;7.27;;
30010;SDS011;16851;53.564;8.112;2023-01-23T15:34:39;9.83;;;6.30;;
30010;SDS011;16851;53.564;8.112;2023-01-23T15:39:56;8.90;;;6.23;;
30010;SDS011;16851;53.564;8.112;2023-01-23T15:45:13;11.83;;;6.20;;
30010;SDS011;16851;53.564;8.112;2023-01-23T15:50:17;10.43;;;6.60;;
30010;SDS011;16851;53.564;8.112;2023-01-23T15:55:20;7.77;;;6.03;;
30010;SDS011;16851;53.564;8.112;2023-01-23T16:00:25;8.37;;;5.87;;
30010;SDS011;16851;53.564;8.112;2023-01-23T16:05:29;10.07;;;6.30;;
30010;SDS011;16851;53.564;8.112;2023-01-23T16:10:37;8.87;;;6.70;;
30010;SDS011;16851;53.564;8.112;2023-01-23T16:15:43;8.27;;;7.00;;
30010;SDS011;16851;53.564;8.112;2023-01-23T16:20:45;10.77;;;7.73;;
30010;SDS011;16851;53.564;8.112;2023-01-23T16:25:47;11.80;;;7.50;;
30010;SDS011;16851;53.564;8.112;2023-01-23T16:30:53;10.77;;;8.70;;
30010;SDS011;16851;53.564;8.112;2023-01-23T16:35:57;12.30;;;8.20;;
30010;SDS011;16851;53.564;8.112;2023-01-23T16:40:59;11.03;;;7.97;;
30010;SDS011;16851;53.564;8.112;2023-01-23T16:46:04;10.30;;;7.77;;
30010;SDS011;16851;53.564;8.112;2023-01-23T16:51:17;9.90;;;7.77;;
30010;SDS011;16851;53.564;8.112;2023-01-23T16:56:35;12.10;;;8.37;;
30010;SDS011;16851;53.564;8.112;2023-01-23T17:01:39;11.93;;;7.60;;
30010;SDS011;16851;53.564;8.112;2023-01-23T17:06:44;10.27;;;8.10;;
30010;SDS011;16851;53.564;8.112;2023-01-23T17:11:47;14.53;;;9.60;;
30010;SDS011;16851;53.564;8.112;2023-01-23T17:16:56;16.00;;;10.00;;
30010;SDS011;16851;53.564;8.112;2023-01-23T17:22:07;16.33;;;10.40;;
30010;SDS011;16851;53.564;8.112;2023-01-23T17:27:23;14.53;;;10.53;;
30010;SDS011;16851;53.564;8.112;2023-01-23T17:32:27;12.60;;;9.87;;
30010;SDS011;16851;53.564;8.112;2023-01-23T17:37:34;25.47;;;12.53;;
30010;SDS011;16851;53.564;8.112;2023-01-23T17:42:38;25.33;;;13.50;;
30010;SDS011;16851;53.564;8.112;2023-01-23T17:47:43;73.30;;;24.80;;
30010;SDS011;16851;53.564;8.112;2023-01-23T17:52:46;41.50;;;18.63;;
30010;SDS011;16851;53.564;8.112;2023-01-23T17:57:51;31.13;;;14.60;;
30010;SDS011;16851;53.564;8.112;2023-01-23T18:02:57;23.37;;;11.90;;
30010;SDS011;16851;53.564;8.112;2023-01-23T18:08:02;14.27;;;10.73;;
30010;SDS011;16851;53.564;8.112;2023-01-23T18:23:28;18.17;;;11.03;;
30010;SDS011;16851;53.564;8.112;2023-01-23T18:28:35;17.97;;;11.77;;
30010;SDS011;16851;53.564;8.112;2023-01-23T18:34:08;44.35;;;22.08;;
30010;SDS011;16851;53.564;8.112;2023-01-23T18:44:38;78.30;;;30.23;;
30010;SDS011;16851;53.564;8.112;2023-01-23T18:49:45;76.90;;;30.00;;
30010;SDS011;16851;53.564;8.112;2023-01-23T19:00:08;62.77;;;27.13;;
30010;SDS011;16851;53.564;8.112;2023-01-23T19:10:25;62.93;;;25.63;;
30010;SDS011;16851;53.564;8.112;2023-01-23T19:21:07;41.50;;;19.00;;
30010;SDS011;16851;53.564;8.112;2023-01-23T19:26:14;28.00;;;16.93;;
30010;SDS011;16851;53.564;8.112;2023-01-23T19:36:25;42.13;;;21.07;;
30010;SDS011;16851;53.564;8.112;2023-01-23T19:46:53;29.67;;;18.40;;
30010;SDS011;16851;53.564;8.112;2023-01-23T19:51:54;33.50;;;21.20;;
30010;SDS011;16851;53.564;8.112;2023-01-23T19:57:04;37.67;;;25.73;;
30010;SDS011;16851;53.564;8.112;2023-01-23T20:02:18;30.50;;;22.47;;
30010;SDS011;16851;53.564;8.112;2023-01-23T20:07:23;36.93;;;25.17;;
30010;SDS011;16851;53.564;8.112;2023-01-23T20:12:28;41.93;;;27.00;;
30010;SDS011;16851;53.564;8.112;2023-01-23T20:17:31;29.50;;;20.13;;
30010;SDS011;16851;53.564;8.112;2023-01-23T20:22:33;32.73;;;23.70;;
30010;SDS011;16851;53.564;8.112;2023-01-23T20:27:38;50.90;;;32.20;;
30010;SDS011;16851;53.564;8.112;2023-01-23T20:32:50;33.43;;;22.67;;
30010;SDS011;16851;53.564;8.112;2023-01-23T20:37:55;29.80;;;21.13;;
30010;SDS011;16851;53.564;8.112;2023-01-23T20:43:02;31.07;;;20.90;;
30010;SDS011;16851;53.564;8.112;2023-01-23T20:48:06;34.40;;;21.37;;
30010;SDS011;16851;53.564;8.112;2023-01-23T20:53:12;32.37;;;21.97;;
30010;SDS011;16851;53.564;8.112;2023-01-23T20:58:32;33.80;;;22.23;;
30010;SDS011;16851;53.564;8.112;2023-01-23T21:03:58;37.60;;;23.47;;
30010;SDS011;16851;53.564;8.112;2023-01-23T21:09:00;35.37;;;23.27;;
30010;SDS011;16851;53.564;8.112;2023-01-23T21:14:05;32.43;;;23.07;;
30010;SDS011;16851;53.564;8.112;2023-01-23T21:19:07;32.17;;;22.10;;
30010;SDS011;16851;53.564;8.112;2023-01-23T21:24:11;30.57;;;20.83;;
30010;SDS011;16851;53.564;8.112;2023-01-23T21:29:13;34.93;;;23.77;;
30010;SDS011;16851;53.564;8.112;2023-01-23T21:34:15;33.20;;;21.87;;
30010;SDS011;16851;53.564;8.112;2023-01-23T21:39:21;38.33;;;23.20;;
30010;SDS011;16851;53.564;8.112;2023-01-23T21:44:29;34.33;;;24.00;;
30010;SDS011;16851;53.564;8.112;2023-01-23T21:49:36;33.07;;;23.53;;
30010;SDS011;16851;53.564;8.112;2023-01-23T21:54:44;34.67;;;23.17;;
30010;SDS011;16851;53.564;8.112;2023-01-23T21:59:48;35.37;;;23.90;;
30010;SDS011;16851;53.564;8.112;2023-01-23T22:05:17;32.57;;;22.67;;
30010;SDS011;16851;53.564;8.112;2023-01-23T22:10:20;36.53;;;23.53;;
30010;SDS011;16851;53.564;8.112;2023-01-23T22:15:25;35.13;;;24.97;;
30010;SDS011;16851;53.564;8.112;2023-01-23T22:20:32;33.57;;;23.80;;
30010;SDS011;16851;53.564;8.112;2023-01-23T22:25:34;35.90;;;23.67;;
30010;SDS011;16851;53.564;8.112;2023-01-23T22:30:35;41.03;;;25.93;;
30010;SDS011;16851;53.564;8.112;2023-01-23T22:35:37;34.67;;;23.77;;
30010;SDS011;16851;53.564;8.112;2023-01-23T22:40:44;35.70;;;23.07;;
30010;SDS011;16851;53.564;8.112;2023-01-23T22:45:48;34.30;;;24.03;;
30010;SDS011;16851;53.564;8.112;2023-01-23T22:50:50;36.97;;;25.47;;
30010;SDS011;16851;53.564;8.112;2023-01-23T22:55:51;37.37;;;25.13;;
30010;SDS011;16851;53.564;8.112;2023-01-23T23:00:55;37.30;;;25.70;;
30010;SDS011;16851;53.564;8.112;2023-01-23T23:06:03;39.07;;;25.20;;
30010;SDS011;16851;53.564;8.112;2023-01-23T23:11:07;39.03;;;27.87;;
30010;SDS011;16851;53.564;8.112;2023-01-23T23:21:16;46.23;;;31.87;;
30010;SDS011;16851;53.564;8.112;2023-01-23T23:26:19;44.53;;;29.90;;
30010;SDS011;16851;53.564;8.112;2023-01-23T23:31:23;42.23;;;28.10;;
30010;SDS011;16851;53.564;8.112;2023-01-23T23:36:25;44.53;;;29.73;;
30010;SDS011;16851;53.564;8.112;2023-01-23T23:41:30;36.33;;;26.10;;
30010;SDS011;16851;53.564;8.112;2023-01-23T23:46:35;36.23;;;24.00;;
30010;SDS011;16851;53.564;8.112;2023-01-23T23:51:41;38.33;;;25.77;;
30010;SDS011;16851;53.564;8.112;2023-01-23T23:56:47;35.43;;;24.90;;
